Portada
METAR-TAF:

METAR-TAF

Aeroports :

Mae Hong Son, Tailàndia

latitud: 19-18N, longitud: 097-50E, altitud: 267 m

Observació

L'informe es va fer fa 1 hora i 12 minuts, a les 08:00 UTC
Vent 3 kt del Sud/Sud-Est
Temperatura 31°C
Humitat 59%
Pressió 1009 hPa
Visibilitat 10 km o més
Cel ennuvolat a una alçada de 2500 ft

METAR: VTCH 240800Z 15003KT 9999 BKN025 31/22 Q1009

Hora: 16:12 (09:12 UTC)

Pronòstic

L'informe es va fer fa 4 hores i 12 minuts, a les 05:00 UTC
Pronòstic vàlid del 24 a les 06 UTC al 25 a les 06 UTC
Vent 5 kt del Nord/Nord-Oest
Visibilitat 10 km o més
Núvols disperses a una alçada de 2500 ft

TAF: VTCH 240500Z 2406/2506 34005KT 9999 SCT025

Observacions i pronòstics meteorològics de més de 4000 aeroports (METAR i TAF).

Les estacions disponibles són els punts grocs i vermells al mapa.

Posi el ratolí al punt desitjat per veure el nom de l'estació.

Feu clic per veure les observacions i els pronòstics meteorològics.

Per canviar el mapa: feu clic els botons verds amb una creu de color negre per apropar; al botó verd amb un guió per allunyar la imatge; o en les fletxes verdes per a mapes adjacents.


METAR-TAF: